Flight Track Log - Related Links

Times and Time Zones

All times are in EDT time to prevent confusion due to time zone crossing. See the SKW5550 flight status page for this flight to view local times or setup timezone preferences in your user account.

Time Position Orientation Groundspeed Altitude Reporting Facility
EDT Latitude Longitude Course Direction KTS MPH feet Rate Location/Type
Thu 06:14:47 PM 39.8500 -104.7500 288° West 191 220 6,500  Level Denver TRACON
Thu 06:15:41 PM 39.8667 -104.8167 288° West 223 257 7,800 1,421 Climbing Denver TRACON
Thu 06:16:41 PM 39.8833 -104.8833 288° West 252 290 9,200 1,667 Climbing Denver TRACON
Thu 06:17:47 PM 39.9000 -105.0000 281° West 283 326 11,300 1,316 Climbing Denver TRACON
Thu 06:18:35 PM 39.9167 -105.0833 285° West 326 375 11,700 759 Climbing Denver TRACON
Thu 06:19:06 PM 39.9167 -105.1450 270° West 334 384 12,300 1,677 Climbing Denver Center
Thu 06:20:08 PM 39.9306 -105.2792 278° West 347 399 14,300 1,694 Climbing Denver Center
Thu 06:21:10 PM 39.9444 -105.4019 278° West 345 397 15,800 1,210 Climbing Denver Center
Thu 06:22:12 PM 39.9608 -105.5369 279° West 352 405 16,800 968 Climbing Denver Center
Thu 06:23:14 PM 39.9747 -105.6675 278° West 363 418 17,800 1,113 Climbing Denver Center
Thu 06:24:16 PM 39.9742 -105.8100 270° West 367 422 19,100 1,065 Climbing Denver Center
Thu 06:25:18 PM 39.9753 -105.9478 271° West 363 418 20,000 726 Climbing Denver Center
Thu 06:26:20 PM 39.9828 -106.0864 274° West 380 437 20,600 629 Climbing Denver Center
Thu 06:27:22 PM 39.9919 -106.2256 275° West 387 445 21,300 576 Climbing Denver Center
Thu 06:28:25 PM 39.9994 -106.3667 274° West 391 450 21,800 624 Climbing Denver Center
Thu 06:29:27 PM 40.0147 -106.5247 277° West 404 465 22,600 726 Climbing Denver Center
Thu 06:30:29 PM 40.0369 -106.6636 282° West 408 470 23,300 823 Climbing Denver Center
Thu 06:31:31 PM 40.0622 -106.8294 281° West 417 480 24,300 871 Climbing Denver Center
Thu 06:32:33 PM 40.0839 -106.9708 281° West 416 479 25,100 677 Climbing Denver Center
Thu 06:33:35 PM 40.1086 -107.1378 281° West 420 483 25,700 532 Climbing Denver Center
Thu 06:34:37 PM 40.1308 -107.2836 281° West 426 490 26,200 484 Climbing Denver Center
Thu 06:35:39 PM 40.1569 -107.4561 281° West 434 499 26,700 484 Climbing Denver Center
Thu 06:36:41 PM 40.1783 -107.6067 281° West 439 505 27,200 532 Climbing Denver Center
Thu 06:37:43 PM 40.2044 -107.7836 281° West 444 511 27,800 532 Climbing Denver Center
Thu 06:38:45 PM 40.2258 -107.9336 281° West 442 509 28,300 484 Climbing Denver Center
Thu 06:39:47 PM 40.2508 -108.1122 280° West 448 516 28,800 484 Climbing Denver Center
Thu 06:40:49 PM 40.2728 -108.2642 281° West 446 513 29,300 531 Climbing Denver Center
Thu 06:41:40 PM 40.2942 -108.4153 281° West 447 514 29,800 531 Climbing Salt Lake Center
Thu 06:42:42 PM 40.3144 -108.5733 280° West 454 522 30,300 484 Climbing Salt Lake Center
Thu 06:43:44 PM 40.3392 -108.7553 280° West 454 522 30,800 484 Climbing Salt Lake Center
Thu 06:44:46 PM 40.3600 -108.9094 280° West 453 521 31,300 532 Climbing Salt Lake Center
Thu 06:45:48 PM 40.3847 -109.0906 280° West 454 522 31,900 390 Climbing Salt Lake Center
Thu 06:46:49 PM 40.4042 -109.2458 279° West 454 522 32,100 341 Climbing Salt Lake Center
Thu 06:47:51 PM 40.4244 -109.4028 280° West 456 525 32,600 532 Climbing Salt Lake Center
Thu 06:48:53 PM 40.4483 -109.5839 280° West 453 521 33,200 532 Climbing Salt Lake Center
Thu 06:49:55 PM 40.4672 -109.7367 279° West 446 513 33,700 387 Climbing Salt Lake Center
Thu 06:50:57 PM 40.4881 -109.9114 279° West 437 503 34,000 145 Climbing Salt Lake Center
Thu 06:51:59 PM 40.5061 -110.0633 279° West 439 505 34,000  Level Salt Lake Center
Thu 06:53:00 PM 40.5228 -110.2442 277° West 444 511 34,000  Level Salt Lake Center
Thu 06:54:02 PM 40.5386 -110.3992 278° West 447 514 34,000  Level Salt Lake Center
Thu 06:55:04 PM 40.5553 -110.5817 277° West 450 518 34,000  Level Salt Lake Center
Thu 06:56:06 PM 40.5694 -110.7350 277° West 451 519 34,000  Level Salt Lake Center
Thu 06:57:07 PM 40.5847 -110.8981 277° West 451 519 34,000  Level Salt Lake Center
Thu 06:58:09 PM 40.5997 -111.0608 277° West 449 517 34,000  Level Salt Lake Center
Thu 06:59:11 PM 40.6142 -111.2228 277° West 447 514 34,000  Level Salt Lake Center
Thu 07:00:13 PM 40.6311 -111.4169 277° West 443 510 34,000  Level Salt Lake Center
Thu 07:01:14 PM 40.6450 -111.5792 276° West 445 512 34,000  Level Salt Lake Center
Thu 07:02:16 PM 40.6578 -111.7394 276° West 439 505 34,000  Level Salt Lake Center
Thu 07:03:18 PM 40.6714 -111.9006 276° West 439 505 34,000  Level Salt Lake Center
Thu 07:04:20 PM 40.6839 -112.0600 276° West 436 502 34,000  Level Salt Lake Center
Thu 07:05:21 PM 40.6967 -112.2197 276° West 436 502 34,000  Level Salt Lake Center
Thu 07:06:23 PM 40.7092 -112.3778 276° West 433 498 34,000  Level Salt Lake Center
Thu 07:07:25 PM 40.7214 -112.5356 276° West 432 497 34,000  Level Salt Lake Center
Thu 07:08:27 PM 40.7228 -112.6933 271° West 430 495 34,000  Level Salt Lake Center
Thu 07:09:29 PM 40.7247 -112.8803 271° West 424 488 34,000  Level Salt Lake Center
Thu 07:10:30 PM 40.7239 -113.0372 270° West 427 491 34,000  Level Salt Lake Center
Thu 07:11:32 PM 40.7253 -113.1919 271° West 424 488 34,000  Level Salt Lake Center
Thu 07:12:34 PM 40.7275 -113.3458 271° West 421 484 34,000  Level Salt Lake Center
Thu 07:13:36 PM 40.7264 -113.4994 270° West 422 486 34,000  Level Salt Lake Center
Thu 07:14:37 PM 40.7272 -113.6511 270° West 418 481 34,000  Level Salt Lake Center
Thu 07:15:39 PM 40.7256 -113.8042 269° West 418 481 34,000  Level Salt Lake Center
Thu 07:16:41 PM 40.7192 -113.9872 267° West 417 480 34,000  Level Salt Lake Center
Thu 07:17:43 PM 40.7136 -114.1400 267° West 418 481 34,000  Level Salt Lake Center
Thu 07:18:44 PM 40.7086 -114.2922 268° West 418 481 34,000  Level Salt Lake Center
Thu 07:19:46 PM 40.7039 -114.4444 268° West 417 480 34,000  Level Salt Lake Center
Thu 07:20:48 PM 40.7003 -114.5967 268° West 417 480 34,000  Level Salt Lake Center
Thu 07:21:50 PM 40.6928 -114.7481 266° West 416 479 34,000  Level Salt Lake Center
Thu 07:22:52 PM 40.6853 -114.9042 266° West 417 480 34,000  Level Salt Lake Center
Thu 07:23:53 PM 40.6786 -115.0742 267° West 416 479 34,000  Level Salt Lake Center
Thu 07:24:55 PM 40.6703 -115.2172 266° West 412 474 34,000  Level Salt Lake Center
Thu 07:25:57 PM 40.6667 -115.3867 268° West 414 476 34,000  Level Salt Lake Center
Thu 07:26:59 PM 40.6650 -115.5311 269° West 413 475 34,000  Level Salt Lake Center
Thu 07:28:01 PM 40.6639 -115.6997 270° West 412 474 34,000  Level Salt Lake Center
Thu 07:29:02 PM 40.6622 -115.8450 269° West 415 478 34,000  Level Salt Lake Center
Thu 07:30:04 PM 40.6639 -116.0136 271° West 413 475 34,000  Level Salt Lake Center
Thu 07:31:06 PM 40.6542 -116.1572 265° West 414 476 34,000  Level Salt Lake Center
Thu 07:32:08 PM 40.6278 -116.3008 256° West 421 484 34,000  Level Salt Lake Center
Thu 07:33:10 PM 40.6067 -116.4697 261° West 420 483 34,000  Level Salt Lake Center
Thu 07:34:11 PM 40.5944 -116.6144 264° West 419 482 34,000  Level Salt Lake Center
Thu 07:35:13 PM 40.5808 -116.7825 264° West 418 481 34,000  Level Salt Lake Center
Thu 07:36:15 PM 40.5664 -116.9244 262° West 417 480 34,000  Level Salt Lake Center
Thu 07:37:17 PM 40.5111 -117.0797 245° Southwest 426 490 34,000  Level Salt Lake Center
Thu 07:38:20 PM 40.4539 -117.2347 244° Southwest 427 491 34,000  Level Salt Lake Center
Thu 07:39:21 PM 40.4050 -117.3697 245° Southwest 428 493 34,000  Level Salt Lake Center
Thu 07:40:23 PM 40.3561 -117.5017 244° Southwest 425 489 34,000  Level Salt Lake Center
Thu 07:41:24 PM 40.2981 -117.6583 244° Southwest 427 491 34,000  Level Salt Lake Center
Thu 07:42:26 PM 40.2483 -117.7919 244° Southwest 428 493 34,000  Level Salt Lake Center
Thu 07:43:28 PM 40.1897 -117.9492 244° Southwest 431 496 34,000  Level Salt Lake Center
Thu 07:44:30 PM 40.1589 -118.0908 254° West 423 487 34,000  Level Salt Lake Center
Thu 07:45:32 PM 40.1228 -118.2561 254° West 424 488 34,000  Level Salt Lake Center
Thu 07:46:34 PM 40.0928 -118.3997 255° West 428 493 34,000  Level Salt Lake Center
Thu 07:47:35 PM 40.0558 -118.5636 254° West 423 487 34,000  Level Salt Lake Center
Thu 07:48:37 PM 40.0247 -118.7133 255° West 423 487 34,000 -145 Level Salt Lake Center
Thu 07:49:39 PM 39.9936 -118.8611 255° West 425 489 33,700 -629 Descending Salt Lake Center
Thu 07:50:41 PM 39.9594 -119.0108 253° West 432 497 32,700 -968 Descending Salt Lake Center
Thu 07:51:43 PM 39.9250 -119.1614 253° West 436 502 31,700 -976 Descending Salt Lake Center
Thu 07:52:44 PM 39.8728 -119.3058 245° Southwest 452 520 30,700 -1,073 Descending Salt Lake Center
Thu 07:53:46 PM 39.7953 -119.4744 239° Southwest 456 525 29,500 -993 Descending Salt Lake Center
Thu 07:55:09 PM 39.7158 -119.6458 239° Southwest 459 528 28,300 -993 Descending Oakland Center
Thu 07:56:11 PM 39.6375 -119.8175 239° Southwest 462 532 27,100 -1,065 Descending Oakland Center
Thu 07:57:13 PM 39.5714 -119.9583 239° Southwest 462 532 26,100 -976 Descending Oakland Center
Thu 07:58:14 PM 39.5069 -120.0989 239° Southwest 458 527 25,100 -976 Descending Oakland Center
Thu 07:59:16 PM 39.4389 -120.2422 238° Southwest 452 520 24,100 -960 Descending Oakland Center
Thu 08:00:19 PM 39.3739 -120.3811 239° Southwest 452 520 23,100 -1,016 Descending Oakland Center
Thu 08:01:20 PM 39.3092 -120.5181 239° Southwest 449 517 22,000 -1,024 Descending Oakland Center
Thu 08:02:22 PM 39.2439 -120.6539 238° Southwest 448 516 21,000 -968 Descending Oakland Center
Thu 08:03:24 PM 39.1797 -120.7875 238° Southwest 443 510 20,000 -1,073 Descending Oakland Center
Thu 08:04:25 PM 39.1047 -120.9458 239° Southwest 437 503 18,800 -1,659 Descending Oakland Center
Thu 08:05:27 PM 39.0444 -121.0731 239° Southwest 425 489 16,600 -2,330 Descending Oakland Center
Thu 08:06:08 PM 39.0000 -121.1667 239° Southwest 422 486 14,800 -2,554 Descending Northern Cal TRACON
Thu 08:07:08 PM 38.9500 -121.2833 241° Southwest 381 438 12,300 -2,500 Descending Northern Cal TRACON
Thu 08:08:08 PM 38.9333 -121.3833 258° West 300 345 9,800 -2,684 Descending Northern Cal TRACON
Thu 08:09:02 PM 38.9500 -121.4667 284° West 273 314 7,200 -2,789 Descending Northern Cal TRACON
Thu 08:10:02 PM 38.9167 -121.5333 237° Southwest 267 307 4,500 -2,200 Descending Northern Cal TRACON
Thu 08:11:02 PM 38.8500 -121.5667 201° Southwest 239 275 2,800 -1,429 Descending Northern Cal TRACON
Thu 08:12:08 PM 38.7833 -121.5833 191° South 195 224 1,500 -1,000 Descending Northern Cal TRACON
Thu 08:13:02 PM 38.7500 -121.5833 180° South 149 171 800 -513 Descending Northern Cal TRACON
Thu 08:14:40 PM 38.6833 -121.5817 179° South 166 191 200 -367 Descending Oakland Center
Thu 08:16:00 PM 38.6833 -121.5833 191° South  Level FlightAware Approximate
Thu 08:23:00 PM 38.6954 -121.5908 191° South  Level Estimated

Login

Don't have an account? Register now (free) for customized features, flight alerts, and more!